sensor_id;sensor_type;location;lat;lon;timestamp;P1;durP1;ratioP1;P2;durP2;ratioP2
5819;SDS011;2936;47.348;9.640;2022-07-10T00:01:01;4.20;;;3.50;;
5819;SDS011;2936;47.348;9.640;2022-07-10T00:03:30;3.90;;;3.53;;
5819;SDS011;2936;47.348;9.640;2022-07-10T00:05:57;3.30;;;3.20;;
5819;SDS011;2936;47.348;9.640;2022-07-10T00:08:25;3.83;;;3.57;;
5819;SDS011;2936;47.348;9.640;2022-07-10T00:10:52;3.40;;;3.20;;
5819;SDS011;2936;47.348;9.640;2022-07-10T00:13:19;3.50;;;3.30;;
5819;SDS011;2936;47.348;9.640;2022-07-10T00:15:47;3.80;;;3.40;;
5819;SDS011;2936;47.348;9.640;2022-07-10T00:18:14;3.37;;;3.10;;
5819;SDS011;2936;47.348;9.640;2022-07-10T00:20:43;3.20;;;3.00;;
5819;SDS011;2936;47.348;9.640;2022-07-10T00:23:11;3.87;;;3.57;;
5819;SDS011;2936;47.348;9.640;2022-07-10T00:25:38;4.00;;;3.70;;
5819;SDS011;2936;47.348;9.640;2022-07-10T00:28:05;4.27;;;3.60;;
5819;SDS011;2936;47.348;9.640;2022-07-10T00:30:33;4.10;;;3.70;;
5819;SDS011;2936;47.348;9.640;2022-07-10T00:33:01;3.40;;;3.20;;
5819;SDS011;2936;47.348;9.640;2022-07-10T00:35:28;3.50;;;3.23;;
5819;SDS011;2936;47.348;9.640;2022-07-10T00:37:57;4.17;;;3.77;;
5819;SDS011;2936;47.348;9.640;2022-07-10T00:40:24;4.10;;;3.80;;
5819;SDS011;2936;47.348;9.640;2022-07-10T00:42:51;6.13;;;3.27;;
5819;SDS011;2936;47.348;9.640;2022-07-10T00:45:19;3.63;;;3.40;;
5819;SDS011;2936;47.348;9.640;2022-07-10T00:47:46;13.17;;;3.43;;
5819;SDS011;2936;47.348;9.640;2022-07-10T00:50:13;4.20;;;3.97;;
5819;SDS011;2936;47.348;9.640;2022-07-10T00:52:41;3.87;;;3.57;;
5819;SDS011;2936;47.348;9.640;2022-07-10T00:55:09;3.87;;;3.57;;
5819;SDS011;2936;47.348;9.640;2022-07-10T00:57:37;4.53;;;3.43;;
5819;SDS011;2936;47.348;9.640;2022-07-10T01:00:06;3.67;;;3.50;;
5819;SDS011;2936;47.348;9.640;2022-07-10T01:02:34;3.67;;;3.37;;
5819;SDS011;2936;47.348;9.640;2022-07-10T01:05:02;4.13;;;3.63;;
5819;SDS011;2936;47.348;9.640;2022-07-10T01:07:30;5.10;;;3.60;;
5819;SDS011;2936;47.348;9.640;2022-07-10T01:09:57;4.27;;;3.97;;
5819;SDS011;2936;47.348;9.640;2022-07-10T01:12:28;3.17;;;3.07;;
5819;SDS011;2936;47.348;9.640;2022-07-10T01:14:56;3.37;;;3.27;;
5819;SDS011;2936;47.348;9.640;2022-07-10T01:17:23;4.70;;;3.83;;
5819;SDS011;2936;47.348;9.640;2022-07-10T01:22:57;3.43;;;3.23;;
5819;SDS011;2936;47.348;9.640;2022-07-10T01:25:25;4.30;;;3.70;;
5819;SDS011;2936;47.348;9.640;2022-07-10T01:27:54;4.70;;;3.77;;
5819;SDS011;2936;47.348;9.640;2022-07-10T01:30:21;4.00;;;3.70;;
5819;SDS011;2936;47.348;9.640;2022-07-10T01:32:50;4.27;;;3.60;;
5819;SDS011;2936;47.348;9.640;2022-07-10T01:35:18;3.73;;;3.50;;
5819;SDS011;2936;47.348;9.640;2022-07-10T01:37:46;4.73;;;4.33;;
5819;SDS011;2936;47.348;9.640;2022-07-10T01:40:15;3.80;;;3.50;;
5819;SDS011;2936;47.348;9.640;2022-07-10T01:42:42;4.30;;;3.73;;
5819;SDS011;2936;47.348;9.640;2022-07-10T01:45:11;5.47;;;3.90;;
5819;SDS011;2936;47.348;9.640;2022-07-10T01:47:38;4.30;;;3.97;;
5819;SDS011;2936;47.348;9.640;2022-07-10T01:50:06;4.13;;;3.80;;
5819;SDS011;2936;47.348;9.640;2022-07-10T01:52:34;5.07;;;3.87;;
5819;SDS011;2936;47.348;9.640;2022-07-10T01:55:01;4.70;;;3.57;;
5819;SDS011;2936;47.348;9.640;2022-07-10T01:57:30;4.00;;;3.70;;
5819;SDS011;2936;47.348;9.640;2022-07-10T01:59:58;4.13;;;3.73;;
5819;SDS011;2936;47.348;9.640;2022-07-10T02:02:28;4.70;;;4.30;;
5819;SDS011;2936;47.348;9.640;2022-07-10T02:04:56;5.17;;;4.07;;
5819;SDS011;2936;47.348;9.640;2022-07-10T02:07:22;4.93;;;4.00;;
5819;SDS011;2936;47.348;9.640;2022-07-10T02:09:51;4.30;;;3.90;;
5819;SDS011;2936;47.348;9.640;2022-07-10T02:12:18;4.87;;;4.40;;
5819;SDS011;2936;47.348;9.640;2022-07-10T02:14:50;4.07;;;3.87;;
5819;SDS011;2936;47.348;9.640;2022-07-10T02:17:17;5.17;;;4.50;;
5819;SDS011;2936;47.348;9.640;2022-07-10T02:19:45;4.93;;;4.60;;
5819;SDS011;2936;47.348;9.640;2022-07-10T02:22:15;4.20;;;4.00;;
5819;SDS011;2936;47.348;9.640;2022-07-10T02:24:43;5.10;;;4.63;;
5819;SDS011;2936;47.348;9.640;2022-07-10T02:27:11;4.83;;;4.27;;
5819;SDS011;2936;47.348;9.640;2022-07-10T02:29:38;4.97;;;4.37;;
5819;SDS011;2936;47.348;9.640;2022-07-10T02:32:07;5.30;;;4.83;;
5819;SDS011;2936;47.348;9.640;2022-07-10T02:34:35;6.93;;;4.47;;
5819;SDS011;2936;47.348;9.640;2022-07-10T02:37:02;4.50;;;4.10;;
5819;SDS011;2936;47.348;9.640;2022-07-10T02:39:30;5.00;;;4.57;;
5819;SDS011;2936;47.348;9.640;2022-07-10T02:41:57;5.70;;;4.37;;
5819;SDS011;2936;47.348;9.640;2022-07-10T02:44:24;4.23;;;3.93;;
5819;SDS011;2936;47.348;9.640;2022-07-10T02:46:52;4.57;;;4.27;;
5819;SDS011;2936;47.348;9.640;2022-07-10T02:49:21;7.13;;;4.23;;
5819;SDS011;2936;47.348;9.640;2022-07-10T02:51:48;4.97;;;4.70;;
5819;SDS011;2936;47.348;9.640;2022-07-10T02:54:15;4.80;;;4.50;;
5819;SDS011;2936;47.348;9.640;2022-07-10T02:56:43;7.80;;;4.80;;
5819;SDS011;2936;47.348;9.640;2022-07-10T02:59:10;4.50;;;4.20;;
5819;SDS011;2936;47.348;9.640;2022-07-10T03:01:38;4.60;;;4.40;;
5819;SDS011;2936;47.348;9.640;2022-07-10T03:04:06;4.43;;;4.17;;
5819;SDS011;2936;47.348;9.640;2022-07-10T03:06:34;5.00;;;4.50;;
5819;SDS011;2936;47.348;9.640;2022-07-10T03:09:02;5.40;;;5.10;;
5819;SDS011;2936;47.348;9.640;2022-07-10T03:11:29;5.13;;;4.63;;
5819;SDS011;2936;47.348;9.640;2022-07-10T03:13:57;4.30;;;4.10;;
5819;SDS011;2936;47.348;9.640;2022-07-10T03:16:24;5.47;;;4.77;;
5819;SDS011;2936;47.348;9.640;2022-07-10T03:18:51;5.20;;;4.70;;
5819;SDS011;2936;47.348;9.640;2022-07-10T03:21:21;7.53;;;4.80;;
5819;SDS011;2936;47.348;9.640;2022-07-10T03:23:50;6.00;;;4.97;;
5819;SDS011;2936;47.348;9.640;2022-07-10T03:26:18;5.67;;;4.13;;
5819;SDS011;2936;47.348;9.640;2022-07-10T03:28:45;5.83;;;4.50;;
5819;SDS011;2936;47.348;9.640;2022-07-10T03:31:13;4.97;;;4.37;;
5819;SDS011;2936;47.348;9.640;2022-07-10T03:33:40;5.20;;;4.80;;
5819;SDS011;2936;47.348;9.640;2022-07-10T03:36:08;4.40;;;4.00;;
5819;SDS011;2936;47.348;9.640;2022-07-10T03:38:35;4.63;;;4.33;;
5819;SDS011;2936;47.348;9.640;2022-07-10T03:41:04;8.13;;;4.33;;
5819;SDS011;2936;47.348;9.640;2022-07-10T03:43:31;9.60;;;5.30;;
5819;SDS011;2936;47.348;9.640;2022-07-10T03:45:59;5.03;;;4.63;;
5819;SDS011;2936;47.348;9.640;2022-07-10T03:48:26;4.63;;;4.33;;
5819;SDS011;2936;47.348;9.640;2022-07-10T03:50:54;5.80;;;5.30;;
5819;SDS011;2936;47.348;9.640;2022-07-10T03:53:21;4.90;;;4.60;;
5819;SDS011;2936;47.348;9.640;2022-07-10T03:55:48;5.47;;;5.07;;
5819;SDS011;2936;47.348;9.640;2022-07-10T03:58:17;4.60;;;3.90;;
5819;SDS011;2936;47.348;9.640;2022-07-10T04:00:43;4.07;;;3.80;;
5819;SDS011;2936;47.348;9.640;2022-07-10T04:03:11;6.50;;;5.20;;
5819;SDS011;2936;47.348;9.640;2022-07-10T04:05:39;4.80;;;4.53;;
5819;SDS011;2936;47.348;9.640;2022-07-10T04:08:06;5.47;;;4.90;;
5819;SDS011;2936;47.348;9.640;2022-07-10T04:10:34;5.03;;;4.53;;
5819;SDS011;2936;47.348;9.640;2022-07-10T04:13:02;5.13;;;4.83;;
5819;SDS011;2936;47.348;9.640;2022-07-10T04:15:31;6.30;;;5.20;;
5819;SDS011;2936;47.348;9.640;2022-07-10T04:17:59;6.13;;;4.83;;
5819;SDS011;2936;47.348;9.640;2022-07-10T04:20:26;6.00;;;4.87;;
5819;SDS011;2936;47.348;9.640;2022-07-10T04:22:53;4.70;;;4.30;;
5819;SDS011;2936;47.348;9.640;2022-07-10T04:25:21;6.30;;;4.43;;
5819;SDS011;2936;47.348;9.640;2022-07-10T04:27:48;4.70;;;4.37;;
5819;SDS011;2936;47.348;9.640;2022-07-10T04:30:15;4.30;;;4.10;;
5819;SDS011;2936;47.348;9.640;2022-07-10T04:32:44;6.00;;;4.93;;
5819;SDS011;2936;47.348;9.640;2022-07-10T04:35:11;5.40;;;4.40;;
5819;SDS011;2936;47.348;9.640;2022-07-10T04:37:39;4.57;;;4.27;;
5819;SDS011;2936;47.348;9.640;2022-07-10T04:40:07;4.83;;;4.20;;
5819;SDS011;2936;47.348;9.640;2022-07-10T04:42:34;9.63;;;5.40;;
5819;SDS011;2936;47.348;9.640;2022-07-10T04:45:03;5.53;;;5.03;;
5819;SDS011;2936;47.348;9.640;2022-07-10T04:47:30;16.03;;;4.90;;
5819;SDS011;2936;47.348;9.640;2022-07-10T04:49:59;6.17;;;5.67;;
5819;SDS011;2936;47.348;9.640;2022-07-10T04:52:26;5.20;;;4.80;;
5819;SDS011;2936;47.348;9.640;2022-07-10T04:54:53;5.50;;;5.10;;
5819;SDS011;2936;47.348;9.640;2022-07-10T04:57:21;5.23;;;4.60;;
5819;SDS011;2936;47.348;9.640;2022-07-10T04:59:48;6.60;;;5.57;;
5819;SDS011;2936;47.348;9.640;2022-07-10T05:02:15;7.27;;;5.83;;
5819;SDS011;2936;47.348;9.640;2022-07-10T05:04:43;5.30;;;5.00;;
5819;SDS011;2936;47.348;9.640;2022-07-10T05:07:12;6.23;;;5.63;;
5819;SDS011;2936;47.348;9.640;2022-07-10T05:09:39;5.97;;;5.23;;
5819;SDS011;2936;47.348;9.640;2022-07-10T05:12:07;6.10;;;5.33;;
5819;SDS011;2936;47.348;9.640;2022-07-10T05:14:34;6.97;;;5.30;;
5819;SDS011;2936;47.348;9.640;2022-07-10T05:17:02;8.57;;;5.60;;
5819;SDS011;2936;47.348;9.640;2022-07-10T05:19:29;4.97;;;4.57;;
5819;SDS011;2936;47.348;9.640;2022-07-10T05:21:56;5.97;;;5.37;;
5819;SDS011;2936;47.348;9.640;2022-07-10T05:24:25;7.13;;;6.40;;
5819;SDS011;2936;47.348;9.640;2022-07-10T05:26:53;6.10;;;5.47;;
5819;SDS011;2936;47.348;9.640;2022-07-10T05:29:20;5.63;;;5.23;;
5819;SDS011;2936;47.348;9.640;2022-07-10T05:31:47;5.67;;;5.07;;
5819;SDS011;2936;47.348;9.640;2022-07-10T05:34:15;5.13;;;4.83;;
5819;SDS011;2936;47.348;9.640;2022-07-10T05:36:42;7.77;;;5.57;;
5819;SDS011;2936;47.348;9.640;2022-07-10T05:39:09;4.87;;;4.57;;
5819;SDS011;2936;47.348;9.640;2022-07-10T05:41:38;6.07;;;5.57;;
5819;SDS011;2936;47.348;9.640;2022-07-10T05:44:06;5.57;;;5.17;;
5819;SDS011;2936;47.348;9.640;2022-07-10T05:46:33;9.87;;;5.60;;
5819;SDS011;2936;47.348;9.640;2022-07-10T05:49:00;7.60;;;5.00;;
5819;SDS011;2936;47.348;9.640;2022-07-10T05:51:28;5.30;;;4.90;;
5819;SDS011;2936;47.348;9.640;2022-07-10T05:53:55;6.93;;;5.77;;
5819;SDS011;2936;47.348;9.640;2022-07-10T05:56:22;7.00;;;5.40;;
5819;SDS011;2936;47.348;9.640;2022-07-10T05:58:51;5.37;;;5.03;;
5819;SDS011;2936;47.348;9.640;2022-07-10T06:01:20;5.77;;;5.40;;
5819;SDS011;2936;47.348;9.640;2022-07-10T06:03:48;5.57;;;5.20;;
5819;SDS011;2936;47.348;9.640;2022-07-10T06:06:15;6.60;;;5.90;;
5819;SDS011;2936;47.348;9.640;2022-07-10T06:08:42;8.43;;;5.90;;
5819;SDS011;2936;47.348;9.640;2022-07-10T06:11:10;5.60;;;5.30;;
5819;SDS011;2936;47.348;9.640;2022-07-10T06:13:37;5.47;;;5.00;;
5819;SDS011;2936;47.348;9.640;2022-07-10T06:16:06;6.77;;;5.10;;
5819;SDS011;2936;47.348;9.640;2022-07-10T06:18:34;5.90;;;5.30;;
5819;SDS011;2936;47.348;9.640;2022-07-10T06:21:01;5.87;;;5.37;;
5819;SDS011;2936;47.348;9.640;2022-07-10T06:23:28;5.73;;;5.33;;
5819;SDS011;2936;47.348;9.640;2022-07-10T06:25:56;6.40;;;5.90;;
5819;SDS011;2936;47.348;9.640;2022-07-10T06:28:23;8.07;;;6.30;;
5819;SDS011;2936;47.348;9.640;2022-07-10T06:30:51;5.63;;;5.23;;
5819;SDS011;2936;47.348;9.640;2022-07-10T06:33:19;13.00;;;6.10;;
5819;SDS011;2936;47.348;9.640;2022-07-10T06:35:47;5.40;;;5.10;;
5819;SDS011;2936;47.348;9.640;2022-07-10T06:38:14;6.90;;;6.20;;
5819;SDS011;2936;47.348;9.640;2022-07-10T06:40:41;9.83;;;5.37;;
5819;SDS011;2936;47.348;9.640;2022-07-10T06:43:09;9.33;;;5.90;;
5819;SDS011;2936;47.348;9.640;2022-07-10T06:45:36;6.20;;;5.80;;
5819;SDS011;2936;47.348;9.640;2022-07-10T06:48:04;6.57;;;6.00;;
5819;SDS011;2936;47.348;9.640;2022-07-10T06:50:32;6.40;;;5.90;;
5819;SDS011;2936;47.348;9.640;2022-07-10T06:53:01;7.23;;;6.00;;
5819;SDS011;2936;47.348;9.640;2022-07-10T06:55:29;6.50;;;5.90;;
5819;SDS011;2936;47.348;9.640;2022-07-10T06:57:57;6.93;;;6.10;;
5819;SDS011;2936;47.348;9.640;2022-07-10T07:00:24;5.70;;;5.30;;
5819;SDS011;2936;47.348;9.640;2022-07-10T07:02:52;7.53;;;5.40;;
5819;SDS011;2936;47.348;9.640;2022-07-10T07:05:19;8.03;;;5.67;;
5819;SDS011;2936;47.348;9.640;2022-07-10T07:07:48;6.33;;;5.83;;
5819;SDS011;2936;47.348;9.640;2022-07-10T07:10:15;7.13;;;6.53;;
5819;SDS011;2936;47.348;9.640;2022-07-10T07:12:42;6.87;;;6.30;;
5819;SDS011;2936;47.348;9.640;2022-07-10T07:15:10;7.23;;;6.30;;
5819;SDS011;2936;47.348;9.640;2022-07-10T07:17:40;6.77;;;6.37;;
5819;SDS011;2936;47.348;9.640;2022-07-10T07:20:23;6.93;;;6.33;;
5819;SDS011;2936;47.348;9.640;2022-07-10T07:23:09;9.90;;;6.97;;
5819;SDS011;2936;47.348;9.640;2022-07-10T07:25:36;10.37;;;6.90;;
5819;SDS011;2936;47.348;9.640;2022-07-10T07:28:06;6.10;;;5.70;;
5819;SDS011;2936;47.348;9.640;2022-07-10T07:30:34;6.63;;;5.80;;
5819;SDS011;2936;47.348;9.640;2022-07-10T07:33:01;6.70;;;6.10;;
5819;SDS011;2936;47.348;9.640;2022-07-10T07:35:29;6.60;;;6.00;;
5819;SDS011;2936;47.348;9.640;2022-07-10T07:37:56;7.50;;;6.30;;
5819;SDS011;2936;47.348;9.640;2022-07-10T07:40:25;6.47;;;6.03;;
5819;SDS011;2936;47.348;9.640;2022-07-10T07:42:53;6.60;;;6.00;;
5819;SDS011;2936;47.348;9.640;2022-07-10T07:45:20;6.67;;;6.17;;
5819;SDS011;2936;47.348;9.640;2022-07-10T07:47:49;6.47;;;6.00;;
5819;SDS011;2936;47.348;9.640;2022-07-10T07:50:16;7.13;;;6.57;;
5819;SDS011;2936;47.348;9.640;2022-07-10T07:52:44;6.77;;;6.17;;
5819;SDS011;2936;47.348;9.640;2022-07-10T07:55:12;6.63;;;6.13;;
5819;SDS011;2936;47.348;9.640;2022-07-10T07:57:42;7.70;;;6.80;;
5819;SDS011;2936;47.348;9.640;2022-07-10T08:00:10;7.13;;;6.53;;
5819;SDS011;2936;47.348;9.640;2022-07-10T08:02:39;6.17;;;5.77;;
5819;SDS011;2936;47.348;9.640;2022-07-10T08:05:07;6.87;;;6.17;;
5819;SDS011;2936;47.348;9.640;2022-07-10T08:07:35;6.77;;;6.20;;
5819;SDS011;2936;47.348;9.640;2022-07-10T08:10:04;6.40;;;5.87;;
5819;SDS011;2936;47.348;9.640;2022-07-10T08:12:32;6.40;;;5.90;;
5819;SDS011;2936;47.348;9.640;2022-07-10T08:15:01;6.57;;;5.97;;
5819;SDS011;2936;47.348;9.640;2022-07-10T08:17:28;14.13;;;5.97;;
5819;SDS011;2936;47.348;9.640;2022-07-10T08:19:56;10.57;;;6.13;;
5819;SDS011;2936;47.348;9.640;2022-07-10T08:22:23;6.30;;;5.87;;
5819;SDS011;2936;47.348;9.640;2022-07-10T08:24:51;7.03;;;6.40;;
5819;SDS011;2936;47.348;9.640;2022-07-10T08:27:18;6.20;;;5.60;;
5819;SDS011;2936;47.348;9.640;2022-07-10T08:29:46;6.37;;;5.77;;
5819;SDS011;2936;47.348;9.640;2022-07-10T08:32:14;7.57;;;6.80;;
5819;SDS011;2936;47.348;9.640;2022-07-10T08:34:42;6.43;;;5.83;;
5819;SDS011;2936;47.348;9.640;2022-07-10T08:37:09;7.20;;;6.60;;
5819;SDS011;2936;47.348;9.640;2022-07-10T08:39:36;6.07;;;5.60;;
5819;SDS011;2936;47.348;9.640;2022-07-10T08:42:05;6.30;;;5.80;;
5819;SDS011;2936;47.348;9.640;2022-07-10T08:44:33;6.93;;;6.23;;
5819;SDS011;2936;47.348;9.640;2022-07-10T08:47:01;7.63;;;5.87;;
5819;SDS011;2936;47.348;9.640;2022-07-10T08:49:31;6.17;;;5.67;;
5819;SDS011;2936;47.348;9.640;2022-07-10T08:52:02;6.60;;;5.37;;
5819;SDS011;2936;47.348;9.640;2022-07-10T08:54:30;5.73;;;5.33;;
5819;SDS011;2936;47.348;9.640;2022-07-10T08:56:58;6.10;;;5.50;;
5819;SDS011;2936;47.348;9.640;2022-07-10T08:59:26;8.07;;;5.70;;
5819;SDS011;2936;47.348;9.640;2022-07-10T09:01:54;5.83;;;5.30;;
5819;SDS011;2936;47.348;9.640;2022-07-10T09:04:23;6.20;;;5.60;;
5819;SDS011;2936;47.348;9.640;2022-07-10T09:06:52;8.30;;;5.83;;
5819;SDS011;2936;47.348;9.640;2022-07-10T09:09:20;6.60;;;6.00;;
5819;SDS011;2936;47.348;9.640;2022-07-10T09:11:54;5.73;;;5.03;;
5819;SDS011;2936;47.348;9.640;2022-07-10T09:14:22;5.97;;;5.57;;
5819;SDS011;2936;47.348;9.640;2022-07-10T09:16:51;6.60;;;6.10;;
5819;SDS011;2936;47.348;9.640;2022-07-10T09:19:19;6.20;;;5.70;;
5819;SDS011;2936;47.348;9.640;2022-07-10T09:21:48;6.23;;;5.80;;
5819;SDS011;2936;47.348;9.640;2022-07-10T09:24:17;6.07;;;5.67;;
5819;SDS011;2936;47.348;9.640;2022-07-10T09:26:47;6.53;;;6.10;;
5819;SDS011;2936;47.348;9.640;2022-07-10T09:29:16;6.10;;;5.50;;
5819;SDS011;2936;47.348;9.640;2022-07-10T09:31:50;6.50;;;5.90;;
5819;SDS011;2936;47.348;9.640;2022-07-10T09:34:18;7.17;;;6.43;;
5819;SDS011;2936;47.348;9.640;2022-07-10T09:36:45;7.73;;;6.30;;
5819;SDS011;2936;47.348;9.640;2022-07-10T09:39:12;6.53;;;5.77;;
5819;SDS011;2936;47.348;9.640;2022-07-10T09:41:41;6.57;;;5.97;;
5819;SDS011;2936;47.348;9.640;2022-07-10T09:44:08;6.23;;;5.73;;
5819;SDS011;2936;47.348;9.640;2022-07-10T09:46:37;6.80;;;6.30;;
5819;SDS011;2936;47.348;9.640;2022-07-10T09:49:06;6.80;;;6.00;;
5819;SDS011;2936;47.348;9.640;2022-07-10T09:51:34;7.43;;;6.80;;
5819;SDS011;2936;47.348;9.640;2022-07-10T09:54:03;6.70;;;6.10;;
5819;SDS011;2936;47.348;9.640;2022-07-10T09:56:32;7.07;;;6.47;;
5819;SDS011;2936;47.348;9.640;2022-07-10T09:59:02;6.33;;;5.87;;
5819;SDS011;2936;47.348;9.640;2022-07-10T10:01:34;8.37;;;6.03;;
5819;SDS011;2936;47.348;9.640;2022-07-10T10:04:02;7.50;;;5.90;;
5819;SDS011;2936;47.348;9.640;2022-07-10T10:06:31;7.63;;;5.87;;
5819;SDS011;2936;47.348;9.640;2022-07-10T10:09:03;8.20;;;6.80;;
5819;SDS011;2936;47.348;9.640;2022-07-10T10:11:32;7.23;;;6.63;;
5819;SDS011;2936;47.348;9.640;2022-07-10T10:16:45;5.53;;;5.13;;
5819;SDS011;2936;47.348;9.640;2022-07-10T10:19:18;5.20;;;4.90;;
5819;SDS011;2936;47.348;9.640;2022-07-10T10:22:04;5.30;;;4.90;;
5819;SDS011;2936;47.348;9.640;2022-07-10T10:24:32;5.80;;;5.30;;
5819;SDS011;2936;47.348;9.640;2022-07-10T10:27:01;6.43;;;5.30;;
5819;SDS011;2936;47.348;9.640;2022-07-10T10:29:29;5.40;;;5.10;;
5819;SDS011;2936;47.348;9.640;2022-07-10T10:31:58;5.90;;;5.43;;
5819;SDS011;2936;47.348;9.640;2022-07-10T10:34:39;5.27;;;4.87;;
5819;SDS011;2936;47.348;9.640;2022-07-10T10:37:14;5.07;;;4.67;;
5819;SDS011;2936;47.348;9.640;2022-07-10T10:39:56;5.20;;;4.90;;
5819;SDS011;2936;47.348;9.640;2022-07-10T10:42:34;5.13;;;4.83;;
5819;SDS011;2936;47.348;9.640;2022-07-10T10:47:59;5.20;;;4.80;;
5819;SDS011;2936;47.348;9.640;2022-07-10T10:50:36;6.10;;;4.53;;
5819;SDS011;2936;47.348;9.640;2022-07-10T10:53:04;5.67;;;5.30;;
5819;SDS011;2936;47.348;9.640;2022-07-10T10:55:31;5.63;;;5.13;;
5819;SDS011;2936;47.348;9.640;2022-07-10T10:58:11;4.90;;;4.60;;
5819;SDS011;2936;47.348;9.640;2022-07-10T11:00:39;5.10;;;4.70;;
5819;SDS011;2936;47.348;9.640;2022-07-10T11:03:21;5.07;;;4.70;;
5819;SDS011;2936;47.348;9.640;2022-07-10T11:05:49;4.87;;;4.47;;
5819;SDS011;2936;47.348;9.640;2022-07-10T11:08:35;5.03;;;4.63;;
5819;SDS011;2936;47.348;9.640;2022-07-10T11:13:45;5.25;;;4.95;;
5819;SDS011;2936;47.348;9.640;2022-07-10T11:16:14;4.13;;;3.80;;
5819;SDS011;2936;47.348;9.640;2022-07-10T11:18:43;4.10;;;3.80;;
5819;SDS011;2936;47.348;9.640;2022-07-10T11:21:11;4.63;;;4.23;;
5819;SDS011;2936;47.348;9.640;2022-07-10T11:23:43;4.53;;;4.23;;
5819;SDS011;2936;47.348;9.640;2022-07-10T11:26:17;4.87;;;4.53;;
5819;SDS011;2936;47.348;9.640;2022-07-10T11:28:49;4.63;;;4.40;;
5819;SDS011;2936;47.348;9.640;2022-07-10T11:31:17;4.50;;;4.20;;
5819;SDS011;2936;47.348;9.640;2022-07-10T11:33:46;4.60;;;4.30;;
5819;SDS011;2936;47.348;9.640;2022-07-10T11:36:16;3.70;;;3.40;;
5819;SDS011;2936;47.348;9.640;2022-07-10T11:38:45;4.20;;;4.00;;
5819;SDS011;2936;47.348;9.640;2022-07-10T11:41:15;4.30;;;4.10;;
5819;SDS011;2936;47.348;9.640;2022-07-10T11:43:46;5.33;;;3.90;;
5819;SDS011;2936;47.348;9.640;2022-07-10T11:46:14;9.03;;;3.70;;
5819;SDS011;2936;47.348;9.640;2022-07-10T11:48:41;4.10;;;3.80;;
5819;SDS011;2936;47.348;9.640;2022-07-10T11:51:17;7.30;;;4.20;;
5819;SDS011;2936;47.348;9.640;2022-07-10T11:53:52;4.03;;;3.73;;
5819;SDS011;2936;47.348;9.640;2022-07-10T11:56:19;5.97;;;3.43;;
5819;SDS011;2936;47.348;9.640;2022-07-10T11:58:53;3.83;;;3.60;;
5819;SDS011;2936;47.348;9.640;2022-07-10T12:01:20;4.27;;;3.97;;
5819;SDS011;2936;47.348;9.640;2022-07-10T12:03:55;3.93;;;3.63;;
5819;SDS011;2936;47.348;9.640;2022-07-10T12:06:24;4.00;;;3.70;;
5819;SDS011;2936;47.348;9.640;2022-07-10T12:08:52;4.27;;;3.40;;
5819;SDS011;2936;47.348;9.640;2022-07-10T12:11:19;3.40;;;3.20;;
5819;SDS011;2936;47.348;9.640;2022-07-10T12:13:48;3.30;;;3.10;;
5819;SDS011;2936;47.348;9.640;2022-07-10T12:16:16;3.37;;;3.23;;
5819;SDS011;2936;47.348;9.640;2022-07-10T12:18:43;4.33;;;3.93;;
5819;SDS011;2936;47.348;9.640;2022-07-10T12:21:13;4.40;;;4.00;;
5819;SDS011;2936;47.348;9.640;2022-07-10T12:23:43;3.53;;;3.33;;
5819;SDS011;2936;47.348;9.640;2022-07-10T12:26:11;3.53;;;3.43;;
5819;SDS011;2936;47.348;9.640;2022-07-10T12:28:53;4.10;;;3.70;;
5819;SDS011;2936;47.348;9.640;2022-07-10T12:31:21;3.80;;;3.60;;
5819;SDS011;2936;47.348;9.640;2022-07-10T12:33:52;3.00;;;2.90;;
5819;SDS011;2936;47.348;9.640;2022-07-10T12:36:22;3.40;;;3.20;;
5819;SDS011;2936;47.348;9.640;2022-07-10T12:38:54;3.53;;;3.33;;
5819;SDS011;2936;47.348;9.640;2022-07-10T12:41:23;3.60;;;3.30;;
5819;SDS011;2936;47.348;9.640;2022-07-10T12:43:51;3.47;;;3.17;;
5819;SDS011;2936;47.348;9.640;2022-07-10T12:46:19;2.90;;;2.80;;
5819;SDS011;2936;47.348;9.640;2022-07-10T12:49:02;3.47;;;3.33;;
5819;SDS011;2936;47.348;9.640;2022-07-10T12:51:30;3.90;;;3.70;;
5819;SDS011;2936;47.348;9.640;2022-07-10T12:53:59;3.50;;;3.30;;
5819;SDS011;2936;47.348;9.640;2022-07-10T12:56:31;4.00;;;3.60;;
5819;SDS011;2936;47.348;9.640;2022-07-10T12:58:59;3.03;;;2.93;;
5819;SDS011;2936;47.348;9.640;2022-07-10T13:01:27;3.77;;;3.57;;
5819;SDS011;2936;47.348;9.640;2022-07-10T13:03:58;3.97;;;3.67;;
5819;SDS011;2936;47.348;9.640;2022-07-10T13:06:26;2.93;;;2.77;;
5819;SDS011;2936;47.348;9.640;2022-07-10T13:08:54;3.30;;;3.10;;
5819;SDS011;2936;47.348;9.640;2022-07-10T13:11:22;3.40;;;3.20;;
5819;SDS011;2936;47.348;9.640;2022-07-10T13:13:50;3.23;;;2.90;;
5819;SDS011;2936;47.348;9.640;2022-07-10T13:16:17;4.90;;;3.40;;
5819;SDS011;2936;47.348;9.640;2022-07-10T13:18:45;3.13;;;2.90;;
5819;SDS011;2936;47.348;9.640;2022-07-10T13:21:12;2.83;;;2.73;;
5819;SDS011;2936;47.348;9.640;2022-07-10T13:23:40;3.50;;;3.03;;
5819;SDS011;2936;47.348;9.640;2022-07-10T13:26:08;3.30;;;3.00;;
5819;SDS011;2936;47.348;9.640;2022-07-10T13:28:37;3.07;;;2.77;;
5819;SDS011;2936;47.348;9.640;2022-07-10T13:31:04;3.33;;;3.03;;
5819;SDS011;2936;47.348;9.640;2022-07-10T13:33:33;2.93;;;2.73;;
5819;SDS011;2936;47.348;9.640;2022-07-10T13:36:00;2.60;;;2.50;;
5819;SDS011;2936;47.348;9.640;2022-07-10T13:38:28;2.73;;;2.63;;
5819;SDS011;2936;47.348;9.640;2022-07-10T13:40:56;6.53;;;3.40;;
5819;SDS011;2936;47.348;9.640;2022-07-10T13:43:24;5.10;;;2.90;;
5819;SDS011;2936;47.348;9.640;2022-07-10T13:45:57;12.43;;;3.63;;
5819;SDS011;2936;47.348;9.640;2022-07-10T13:48:25;2.83;;;2.63;;
5819;SDS011;2936;47.348;9.640;2022-07-10T13:50:53;3.07;;;2.90;;
5819;SDS011;2936;47.348;9.640;2022-07-10T13:53:20;2.60;;;2.50;;
5819;SDS011;2936;47.348;9.640;2022-07-10T13:55:48;2.30;;;2.20;;
5819;SDS011;2936;47.348;9.640;2022-07-10T13:58:16;2.40;;;2.30;;
5819;SDS011;2936;47.348;9.640;2022-07-10T14:00:45;2.80;;;2.60;;
5819;SDS011;2936;47.348;9.640;2022-07-10T14:03:14;2.90;;;2.70;;
5819;SDS011;2936;47.348;9.640;2022-07-10T14:05:41;2.60;;;2.40;;
5819;SDS011;2936;47.348;9.640;2022-07-10T14:08:09;2.70;;;2.60;;
5819;SDS011;2936;47.348;9.640;2022-07-10T14:10:36;4.40;;;2.53;;
5819;SDS011;2936;47.348;9.640;2022-07-10T14:13:03;3.20;;;2.50;;
5819;SDS011;2936;47.348;9.640;2022-07-10T14:15:33;2.80;;;2.60;;
5819;SDS011;2936;47.348;9.640;2022-07-10T14:18:00;2.60;;;2.50;;
5819;SDS011;2936;47.348;9.640;2022-07-10T14:20:30;2.60;;;2.50;;
5819;SDS011;2936;47.348;9.640;2022-07-10T14:23:18;2.90;;;2.70;;
5819;SDS011;2936;47.348;9.640;2022-07-10T14:25:46;2.50;;;2.33;;
5819;SDS011;2936;47.348;9.640;2022-07-10T14:28:13;2.97;;;2.77;;
5819;SDS011;2936;47.348;9.640;2022-07-10T14:30:40;2.93;;;2.60;;
5819;SDS011;2936;47.348;9.640;2022-07-10T14:33:08;5.17;;;3.20;;
5819;SDS011;2936;47.348;9.640;2022-07-10T14:35:37;3.57;;;2.60;;
5819;SDS011;2936;47.348;9.640;2022-07-10T14:38:04;3.00;;;2.80;;
5819;SDS011;2936;47.348;9.640;2022-07-10T14:40:32;2.80;;;2.60;;
5819;SDS011;2936;47.348;9.640;2022-07-10T14:42:59;2.97;;;2.87;;
5819;SDS011;2936;47.348;9.640;2022-07-10T14:45:26;2.83;;;2.73;;
5819;SDS011;2936;47.348;9.640;2022-07-10T14:47:53;3.37;;;3.07;;
5819;SDS011;2936;47.348;9.640;2022-07-10T14:50:23;3.17;;;2.97;;
5819;SDS011;2936;47.348;9.640;2022-07-10T14:52:52;2.63;;;2.53;;
5819;SDS011;2936;47.348;9.640;2022-07-10T14:55:19;2.80;;;2.60;;
5819;SDS011;2936;47.348;9.640;2022-07-10T14:57:47;2.90;;;2.70;;
5819;SDS011;2936;47.348;9.640;2022-07-10T15:00:15;4.20;;;3.00;;
5819;SDS011;2936;47.348;9.640;2022-07-10T15:02:43;4.53;;;2.90;;
5819;SDS011;2936;47.348;9.640;2022-07-10T15:05:12;3.67;;;2.73;;
5819;SDS011;2936;47.348;9.640;2022-07-10T15:07:40;2.80;;;2.60;;
5819;SDS011;2936;47.348;9.640;2022-07-10T15:10:09;6.87;;;2.73;;
5819;SDS011;2936;47.348;9.640;2022-07-10T15:12:37;3.10;;;3.00;;
5819;SDS011;2936;47.348;9.640;2022-07-10T15:15:07;3.47;;;3.10;;
5819;SDS011;2936;47.348;9.640;2022-07-10T15:17:35;2.60;;;2.50;;
5819;SDS011;2936;47.348;9.640;2022-07-10T15:20:02;7.57;;;3.00;;
5819;SDS011;2936;47.348;9.640;2022-07-10T15:22:30;3.10;;;2.90;;
5819;SDS011;2936;47.348;9.640;2022-07-10T15:24:58;3.13;;;2.97;;
5819;SDS011;2936;47.348;9.640;2022-07-10T15:27:26;3.00;;;2.70;;
5819;SDS011;2936;47.348;9.640;2022-07-10T15:29:54;3.10;;;2.90;;
5819;SDS011;2936;47.348;9.640;2022-07-10T15:32:21;3.20;;;2.90;;
5819;SDS011;2936;47.348;9.640;2022-07-10T15:34:48;2.57;;;2.47;;